createdAt,value
2022-11-27T00:01:15.660Z,10.75
2022-11-27T00:03:43.214Z,10.82
2022-11-27T00:06:20.440Z,11.00
2022-11-27T00:08:47.861Z,10.77
2022-11-27T00:11:23.392Z,10.30
2022-11-27T00:13:51.092Z,10.38
2022-11-27T00:16:19.202Z,11.25
2022-11-27T00:18:46.589Z,10.90
2022-11-27T00:21:22.231Z,9.85
2022-11-27T00:23:50.227Z,10.40
2022-11-27T00:26:17.791Z,11.15
2022-11-27T00:28:44.792Z,11.32
2022-11-27T00:31:21.247Z,11.15
2022-11-27T00:33:48.595Z,10.45
2022-11-27T00:36:16.186Z,11.38
2022-11-27T00:38:43.411Z,10.85
2022-11-27T00:41:21.702Z,10.98
2022-11-27T00:43:49.600Z,10.82
2022-11-27T00:46:18.489Z,10.73
2022-11-27T00:48:46.020Z,12.25
2022-11-27T00:51:18.391Z,10.32
2022-11-27T00:53:45.586Z,11.27
2022-11-27T00:56:18.081Z,11.48
2022-11-27T00:58:45.951Z,11.98
2022-11-27T01:01:19.327Z,12.23
2022-11-27T01:03:47.234Z,11.13
2022-11-27T01:06:15.409Z,10.45
2022-11-27T01:08:42.837Z,10.07
2022-11-27T01:11:15.839Z,10.75
2022-11-27T01:13:43.029Z,9.45
2022-11-27T01:16:21.535Z,9.93
2022-11-27T01:18:50.182Z,10.13
2022-11-27T01:21:19.886Z,10.45
2022-11-27T01:23:46.916Z,9.98
2022-11-27T01:26:14.460Z,10.40
2022-11-27T01:28:42.094Z,10.20
2022-11-27T01:31:13.305Z,9.55
2022-11-27T01:33:40.709Z,10.50
2022-11-27T01:36:09.160Z,10.52
2022-11-27T01:38:36.591Z,10.90
2022-11-27T01:41:21.377Z,10.07
2022-11-27T01:43:52.178Z,10.10
2022-11-27T01:46:39.544Z,10.57
2022-11-27T01:49:25.304Z,9.70
2022-11-27T01:52:00.615Z,10.68
2022-11-27T01:54:41.383Z,9.50
2022-11-27T01:57:15.639Z,10.07
2022-11-27T01:59:42.947Z,9.93
2022-11-27T02:02:10.006Z,10.60
2022-11-27T02:04:37.392Z,10.70
2022-11-27T02:07:04.503Z,10.27
2022-11-27T02:09:32.256Z,10.27
2022-11-27T02:12:25.487Z,10.48
2022-11-27T02:15:21.638Z,9.80
2022-11-27T02:18:12.108Z,10.02
2022-11-27T02:20:54.439Z,10.48
2022-11-27T02:23:40.168Z,10.32
2022-11-27T02:26:38.216Z,10.32
2022-11-27T02:29:11.182Z,10.65
2022-11-27T02:31:47.019Z,10.43
2022-11-27T02:34:37.410Z,10.40
2022-11-27T02:37:26.415Z,11.27
2022-11-27T02:40:05.128Z,11.25
2022-11-27T02:42:38.618Z,8.43
2022-11-27T02:45:15.929Z,10.25
2022-11-27T02:47:45.866Z,9.50
2022-11-27T02:50:19.410Z,10.63
2022-11-27T02:52:49.171Z,9.65
2022-11-27T02:55:22.099Z,10.20
2022-11-27T02:57:52.340Z,11.15
2022-11-27T03:00:19.598Z,9.80
2022-11-27T03:02:57.458Z,8.82
2022-11-27T03:05:27.727Z,8.63
2022-11-27T03:08:07.512Z,9.50
2022-11-27T03:10:52.501Z,9.52
2022-11-27T03:13:19.715Z,9.85
2022-11-27T03:16:25.100Z,9.60
2022-11-27T03:19:02.843Z,10.15
2022-11-27T03:21:37.749Z,10.57
2022-11-27T03:24:05.517Z,9.88
2022-11-27T03:26:32.518Z,9.32
2022-11-27T03:29:01.257Z,9.52
2022-11-27T03:31:28.469Z,9.32
2022-11-27T03:33:55.705Z,9.43
2022-11-27T03:36:22.926Z,10.02
2022-11-27T03:38:52.741Z,8.45
2022-11-27T03:41:41.936Z,9.77
2022-11-27T03:44:15.623Z,9.75
2022-11-27T03:47:07.801Z,9.60
2022-11-27T03:49:58.620Z,9.15
2022-11-27T03:52:54.031Z,9.27
2022-11-27T03:55:29.380Z,9.13
2022-11-27T03:58:07.032Z,10.47
2022-11-27T04:00:38.509Z,9.60
2022-11-27T04:03:08.678Z,9.93
2022-11-27T04:05:35.554Z,9.15
2022-11-27T04:08:02.452Z,10.07
2022-11-27T04:10:29.504Z,9.43
2022-11-27T04:12:56.494Z,9.05
2022-11-27T04:15:23.358Z,10.35
2022-11-27T04:17:50.330Z,10.20
2022-11-27T04:20:17.295Z,8.95
2022-11-27T04:22:44.133Z,9.52
2022-11-27T04:25:11.256Z,9.35
2022-11-27T04:27:38.202Z,9.60
2022-11-27T04:30:05.721Z,9.13
2022-11-27T04:32:32.746Z,12.60
2022-11-27T04:34:59.694Z,12.13
2022-11-27T04:37:26.626Z,12.30
2022-11-27T04:39:53.667Z,23.55
2022-11-27T04:42:20.660Z,15.63
2022-11-27T04:44:47.601Z,30.73
2022-11-27T04:47:14.703Z,17.20
2022-11-27T04:49:41.648Z,10.52
2022-11-27T04:52:08.716Z,9.75
2022-11-27T04:54:36.014Z,10.13
2022-11-27T04:57:03.464Z,10.27
2022-11-27T04:59:30.458Z,10.75
2022-11-27T05:01:57.486Z,10.80
2022-11-27T05:04:24.487Z,10.38
2022-11-27T05:06:51.444Z,9.13
2022-11-27T05:09:18.749Z,9.32
2022-11-27T05:11:45.745Z,8.57
2022-11-27T05:14:15.348Z,8.88
2022-11-27T05:16:46.271Z,9.25
2022-11-27T05:19:14.567Z,9.75
2022-11-27T05:21:42.564Z,10.70
2022-11-27T05:24:11.771Z,9.77
2022-11-27T05:26:39.769Z,10.50
2022-11-27T05:29:08.044Z,9.30
2022-11-27T05:31:35.505Z,9.25
2022-11-27T05:34:02.743Z,9.38
2022-11-27T05:36:30.168Z,8.38
2022-11-27T05:38:57.200Z,9.38
2022-11-27T05:41:24.303Z,8.38
2022-11-27T05:43:51.147Z,8.88
2022-11-27T05:46:20.650Z,9.13
2022-11-27T05:48:48.064Z,9.02
2022-11-27T05:51:15.857Z,8.77
2022-11-27T05:53:42.898Z,8.30
2022-11-27T05:56:15.794Z,8.23
2022-11-27T05:58:44.141Z,8.23
2022-11-27T06:01:13.478Z,8.23
2022-11-27T06:03:40.460Z,9.27
2022-11-27T06:06:15.710Z,9.90
2022-11-27T06:08:43.496Z,11.43
2022-11-27T06:11:19.915Z,11.18
2022-11-27T06:13:47.854Z,11.20
2022-11-27T06:16:20.389Z,9.70
2022-11-27T06:18:51.139Z,9.80
2022-11-27T06:21:19.145Z,10.10
2022-11-27T06:23:46.172Z,9.40
2022-11-27T06:26:19.654Z,9.18
2022-11-27T06:28:47.877Z,9.13
2022-11-27T06:31:18.392Z,9.18
2022-11-27T06:33:47.217Z,8.85
2022-11-27T06:36:15.230Z,9.25
2022-11-27T06:38:42.527Z,9.20
2022-11-27T06:41:16.273Z,8.52
2022-11-27T06:43:44.479Z,8.45
2022-11-27T06:46:16.625Z,8.15
2022-11-27T06:48:45.784Z,9.07
2022-11-27T06:51:16.613Z,8.40
2022-11-27T06:53:44.314Z,9.23
2022-11-27T06:56:14.818Z,8.68
2022-11-27T06:58:42.716Z,9.18
2022-11-27T07:01:14.761Z,8.55
2022-11-27T07:03:44.446Z,8.90
2022-11-27T07:06:15.331Z,8.50
2022-11-27T07:08:42.535Z,8.32
2022-11-27T07:11:15.772Z,8.45
2022-11-27T07:13:42.820Z,8.50
2022-11-27T07:16:12.708Z,9.07
2022-11-27T07:18:45.562Z,8.35
2022-11-27T07:21:13.377Z,8.85
2022-11-27T07:23:40.655Z,8.82
2022-11-27T07:26:10.840Z,7.78
2022-11-27T07:28:38.732Z,8.07
2022-11-27T07:31:06.404Z,8.98
2022-11-27T07:33:33.428Z,9.60
2022-11-27T07:36:03.475Z,8.80
2022-11-27T07:38:30.927Z,9.15
2022-11-27T07:41:04.910Z,9.00
2022-11-27T07:43:33.758Z,8.43
2022-11-27T07:46:05.060Z,8.35
2022-11-27T07:48:32.812Z,8.55
2022-11-27T07:51:00.198Z,8.63
2022-11-27T07:53:27.284Z,8.40
2022-11-27T07:55:54.948Z,9.23
2022-11-27T07:58:23.963Z,8.93
2022-11-27T08:00:50.958Z,8.95
2022-11-27T08:03:18.358Z,9.38
2022-11-27T08:05:46.851Z,10.35
2022-11-27T08:08:14.161Z,9.60
2022-11-27T08:10:42.512Z,10.25
2022-11-27T08:13:09.656Z,10.27
2022-11-27T08:15:37.333Z,9.75
2022-11-27T08:18:05.801Z,8.75
2022-11-27T08:20:33.567Z,7.80
2022-11-27T08:23:02.937Z,8.38
2022-11-27T08:25:32.313Z,9.02
2022-11-27T08:27:59.587Z,8.30
2022-11-27T08:30:32.458Z,8.05
2022-11-27T08:32:59.507Z,8.65
2022-11-27T08:35:26.624Z,8.73
2022-11-27T08:37:55.038Z,8.27
2022-11-27T08:40:23.974Z,7.97
2022-11-27T08:42:51.058Z,8.30
2022-11-27T08:45:18.742Z,8.27
2022-11-27T08:47:46.267Z,8.15
2022-11-27T08:50:13.440Z,7.97
2022-11-27T08:52:41.131Z,9.25
2022-11-27T08:55:09.340Z,9.68
2022-11-27T08:57:37.330Z,8.93
2022-11-27T09:00:05.745Z,9.77
2022-11-27T09:02:35.032Z,8.05
2022-11-27T09:05:02.971Z,9.43
2022-11-27T09:07:29.990Z,9.48
2022-11-27T09:09:57.358Z,9.23
2022-11-27T09:12:24.317Z,10.00
2022-11-27T09:14:51.463Z,10.55
2022-11-27T09:17:18.836Z,9.65
2022-11-27T09:19:46.882Z,10.63
2022-11-27T09:22:13.910Z,10.25
2022-11-27T09:24:41.472Z,10.77
2022-11-27T09:27:09.258Z,9.77
2022-11-27T09:29:37.013Z,8.85
2022-11-27T09:32:04.290Z,9.38
2022-11-27T09:34:41.848Z,11.25
2022-11-27T09:37:10.050Z,10.30
2022-11-27T09:39:37.567Z,10.20
2022-11-27T09:42:06.432Z,10.00
2022-11-27T09:44:58.398Z,8.98
2022-11-27T09:47:36.146Z,11.02
2022-11-27T09:50:20.070Z,10.82
2022-11-27T09:53:01.491Z,11.32
2022-11-27T09:55:42.586Z,11.38
2022-11-27T09:58:15.823Z,12.18
2022-11-27T10:00:47.026Z,10.70
2022-11-27T10:03:17.475Z,11.18
2022-11-27T10:06:24.237Z,12.90
2022-11-27T10:09:16.324Z,11.32
2022-11-27T10:11:46.294Z,10.10
2022-11-27T10:14:34.941Z,10.52
2022-11-27T10:17:17.031Z,9.88
2022-11-27T10:20:04.142Z,11.02
2022-11-27T10:22:51.457Z,9.85
2022-11-27T10:25:20.797Z,10.93
2022-11-27T10:27:55.782Z,10.10
2022-11-27T10:30:23.007Z,10.50
2022-11-27T10:32:55.727Z,10.73
2022-11-27T10:35:30.439Z,11.77
2022-11-27T10:38:05.222Z,10.63
2022-11-27T10:40:40.651Z,10.13
2022-11-27T10:43:13.181Z,10.82
2022-11-27T10:45:53.227Z,10.23
2022-11-27T10:48:21.221Z,10.20
2022-11-27T10:50:48.760Z,10.85
2022-11-27T10:53:37.679Z,10.15
2022-11-27T10:56:16.744Z,10.52
2022-11-27T10:59:03.002Z,10.30
2022-11-27T11:01:43.745Z,10.13
2022-11-27T11:05:03.267Z,10.40
2022-11-27T11:07:01.261Z,9.63
2022-11-27T11:09:31.984Z,9.18
2022-11-27T11:12:28.303Z,9.68
2022-11-27T11:15:00.571Z,10.60
2022-11-27T11:17:35.017Z,9.65
2022-11-27T11:20:14.466Z,9.65
2022-11-27T11:22:46.742Z,10.35
2022-11-27T11:25:19.243Z,10.68
2022-11-27T11:27:47.969Z,10.57
2022-11-27T11:30:29.034Z,11.50
2022-11-27T11:33:04.217Z,10.43
2022-11-27T11:35:36.220Z,12.02
2022-11-27T11:38:16.664Z,12.45
2022-11-27T11:40:55.523Z,11.77
2022-11-27T11:43:29.222Z,12.07
2022-11-27T11:46:25.488Z,11.57
2022-11-27T11:49:26.686Z,14.23
2022-11-27T11:52:22.312Z,16.30
2022-11-27T11:55:12.435Z,12.85
2022-11-27T11:58:03.549Z,12.52
2022-11-27T12:00:58.542Z,11.35
2022-11-27T12:04:00.830Z,12.07
2022-11-27T12:06:42.759Z,15.07
2022-11-27T12:09:14.294Z,13.60
2022-11-27T12:12:00.684Z,11.82
2022-11-27T12:14:50.742Z,12.48
2022-11-27T12:17:31.852Z,11.45
2022-11-27T12:20:49.773Z,11.40
2022-11-27T12:23:51.472Z,12.32
2022-11-27T12:26:29.081Z,12.98
2022-11-27T12:29:18.628Z,13.05
2022-11-27T12:32:19.652Z,15.95
2022-11-27T12:35:16.547Z,14.27
2022-11-27T12:37:56.105Z,14.43
2022-11-27T12:40:46.902Z,14.07
2022-11-27T12:43:16.606Z,14.45
2022-11-27T12:45:50.343Z,14.40
2022-11-27T12:48:42.686Z,14.48
2022-11-27T12:51:57.319Z,13.93
2022-11-27T12:54:40.293Z,14.23
2022-11-27T12:57:15.577Z,13.43
2022-11-27T12:59:48.901Z,13.77
2022-11-27T13:02:37.495Z,14.00
2022-11-27T13:05:08.408Z,14.07
2022-11-27T13:07:56.577Z,15.18
2022-11-27T13:10:40.550Z,14.50
2022-11-27T13:13:18.193Z,14.27
2022-11-27T13:15:53.694Z,17.02
2022-11-27T13:18:45.306Z,16.75
2022-11-27T13:21:23.389Z,15.93
2022-11-27T13:23:54.514Z,17.98
2022-11-27T13:26:45.474Z,16.55
2022-11-27T13:29:31.192Z,17.52
2022-11-27T13:32:04.719Z,17.93
2022-11-27T13:34:33.619Z,16.67
2022-11-27T13:37:07.523Z,18.15
2022-11-27T13:39:41.390Z,17.95
2022-11-27T13:42:20.218Z,17.92
2022-11-27T13:45:20.018Z,18.33
2022-11-27T13:47:48.142Z,17.95
2022-11-27T13:50:19.242Z,17.80
2022-11-27T13:53:06.696Z,18.77
2022-11-27T13:55:36.733Z,19.20
2022-11-27T13:58:06.377Z,20.13
2022-11-27T14:00:42.651Z,20.48
2022-11-27T14:05:49.069Z,19.85
2022-11-27T14:08:34.892Z,18.17
2022-11-27T14:11:10.103Z,19.27
2022-11-27T14:13:41.796Z,19.23
2022-11-27T14:16:29.624Z,19.63
2022-11-27T14:19:05.793Z,18.98
2022-11-27T14:21:36.430Z,17.52
2022-11-27T14:24:07.506Z,18.55
2022-11-27T14:26:34.629Z,18.05
2022-11-27T14:29:03.778Z,18.48
2022-11-27T14:31:33.671Z,17.30
2022-11-27T14:34:24.288Z,18.98
2022-11-27T14:36:53.094Z,21.05
2022-11-27T14:39:35.065Z,20.80
2022-11-27T14:42:05.749Z,19.92
2022-11-27T14:44:33.949Z,19.08
2022-11-27T14:47:07.441Z,21.27
2022-11-27T14:49:34.854Z,22.58
2022-11-27T14:52:09.382Z,20.77
2022-11-27T14:54:41.081Z,18.35
2022-11-27T14:57:23.356Z,18.23
2022-11-27T15:00:20.140Z,19.42
2022-11-27T15:03:01.092Z,17.88
2022-11-27T15:05:32.262Z,16.23
2022-11-27T15:08:03.221Z,15.90
2022-11-27T15:13:36.224Z,16.30
2022-11-27T15:16:14.613Z,18.00
2022-11-27T15:18:42.968Z,15.02
2022-11-27T15:21:19.386Z,13.55
2022-11-27T15:23:53.688Z,17.13
2022-11-27T15:26:37.927Z,18.45
2022-11-27T15:29:25.060Z,20.98
2022-11-27T15:31:54.321Z,20.10
2022-11-27T15:34:23.652Z,17.90
2022-11-27T15:37:09.129Z,19.63
2022-11-27T15:39:48.992Z,21.15
2022-11-27T15:42:17.961Z,21.77
2022-11-27T15:44:47.291Z,20.98
2022-11-27T15:47:26.910Z,20.77
2022-11-27T15:49:54.750Z,18.67
2022-11-27T15:52:22.695Z,21.52
2022-11-27T15:54:51.426Z,20.52
2022-11-27T15:57:19.314Z,21.67
2022-11-27T15:59:46.542Z,20.70
2022-11-27T16:02:17.803Z,18.70
2022-11-27T16:04:45.851Z,20.20
2022-11-27T16:07:13.402Z,20.45
2022-11-27T16:09:40.993Z,20.52
2022-11-27T16:12:08.599Z,22.65
2022-11-27T16:14:36.685Z,19.80
2022-11-27T16:17:04.911Z,17.98
2022-11-27T16:19:32.966Z,18.38
2022-11-27T16:22:08.788Z,21.55
2022-11-27T16:24:41.123Z,19.73
2022-11-27T16:27:08.794Z,16.60
2022-11-27T16:29:36.330Z,17.17
2022-11-27T16:32:04.019Z,16.02
2022-11-27T16:34:31.051Z,16.85
2022-11-27T16:36:58.641Z,16.60
2022-11-27T16:39:27.841Z,15.77
2022-11-27T16:41:59.934Z,16.40
2022-11-27T16:44:31.958Z,17.63
2022-11-27T16:47:01.598Z,16.27
2022-11-27T16:49:29.453Z,14.40
2022-11-27T16:52:01.016Z,14.68
2022-11-27T16:54:28.792Z,14.82
2022-11-27T16:56:56.378Z,14.55
2022-11-27T16:59:23.913Z,16.20
2022-11-27T17:01:52.351Z,16.83
2022-11-27T17:04:23.729Z,13.63
2022-11-27T17:06:52.054Z,15.23
2022-11-27T17:09:19.630Z,13.00
2022-11-27T17:11:51.950Z,14.30
2022-11-27T17:14:21.341Z,14.57
2022-11-27T17:16:48.734Z,14.98
2022-11-27T17:19:16.647Z,14.10
2022-11-27T17:21:46.933Z,14.45
2022-11-27T17:24:18.395Z,14.20
2022-11-27T17:26:54.583Z,14.93
2022-11-27T17:31:51.744Z,14.95
2022-11-27T17:34:23.149Z,14.90
2022-11-27T17:36:54.576Z,15.30
2022-11-27T17:39:25.575Z,15.38
2022-11-27T17:41:54.906Z,14.68
2022-11-27T17:44:22.187Z,13.95
2022-11-27T17:46:50.938Z,16.73
2022-11-27T17:49:21.297Z,16.33
2022-11-27T17:51:50.626Z,16.35
2022-11-27T17:54:18.253Z,18.27
2022-11-27T17:59:37.454Z,16.48
2022-11-27T18:02:05.968Z,16.98
2022-11-27T18:04:33.106Z,17.15
2022-11-27T18:07:01.605Z,16.10
2022-11-27T18:09:28.793Z,19.75
2022-11-27T18:11:57.913Z,18.40
2022-11-27T18:14:25.344Z,15.15
2022-11-27T18:16:54.017Z,15.75
2022-11-27T18:19:27.772Z,15.07
2022-11-27T18:21:55.749Z,16.83
2022-11-27T18:24:24.716Z,18.48
2022-11-27T18:27:08.232Z,18.27
2022-11-27T18:29:42.452Z,20.08
2022-11-27T18:32:11.948Z,19.27
2022-11-27T18:34:40.008Z,17.25
2022-11-27T18:37:08.959Z,17.17
2022-11-27T18:39:38.052Z,16.33
2022-11-27T18:42:07.922Z,18.35
2022-11-27T18:44:39.637Z,17.40
2022-11-27T18:47:15.506Z,18.27
2022-11-27T18:49:43.830Z,19.23
2022-11-27T18:52:13.809Z,18.67
2022-11-27T18:54:41.488Z,18.42
2022-11-27T18:57:11.386Z,16.95
2022-11-27T18:59:42.052Z,17.35
2022-11-27T19:02:11.168Z,15.95
2022-11-27T19:04:39.303Z,16.27
2022-11-27T19:07:11.242Z,15.45
2022-11-27T19:09:40.825Z,15.27
2022-11-27T19:12:08.862Z,18.02
2022-11-27T19:14:38.623Z,15.23
2022-11-27T19:17:06.723Z,14.80
2022-11-27T19:19:55.368Z,15.27
2022-11-27T19:22:24.043Z,16.80
2022-11-27T19:24:52.753Z,14.55
2022-11-27T19:27:20.077Z,14.52
2022-11-27T19:29:49.087Z,14.75
2022-11-27T19:32:20.948Z,16.20
2022-11-27T19:35:04.258Z,14.27
2022-11-27T19:37:35.829Z,15.00
2022-11-27T19:40:13.425Z,15.90
2022-11-27T19:42:41.664Z,14.50
2022-11-27T19:45:11.016Z,16.00
2022-11-27T19:47:39.468Z,13.57
2022-11-27T19:50:08.051Z,14.63
2022-11-27T19:52:36.073Z,14.20
2022-11-27T19:55:03.914Z,14.02
2022-11-27T19:57:35.741Z,15.32
2022-11-27T20:00:08.974Z,14.18
2022-11-27T20:02:41.911Z,13.88
2022-11-27T20:05:23.015Z,13.13
2022-11-27T20:07:56.637Z,14.48
2022-11-27T20:13:05.434Z,13.93
2022-11-27T20:15:33.109Z,14.30
2022-11-27T20:18:01.091Z,14.50
2022-11-27T20:20:34.100Z,15.02
2022-11-27T20:23:07.252Z,14.77
2022-11-27T20:25:45.265Z,13.60
2022-11-27T20:28:16.206Z,13.55
2022-11-27T20:30:46.251Z,15.20
2022-11-27T20:33:17.812Z,13.10
2022-11-27T20:35:47.532Z,13.30
2022-11-27T20:38:16.175Z,13.20
2022-11-27T20:40:47.018Z,12.93
2022-11-27T20:43:15.664Z,12.80
2022-11-27T20:45:44.387Z,12.88
2022-11-27T20:48:12.389Z,13.60
2022-11-27T20:50:49.797Z,13.23
2022-11-27T20:53:20.176Z,12.63
2022-11-27T20:55:56.613Z,13.77
2022-11-27T20:58:29.223Z,13.38
2022-11-27T21:01:01.188Z,12.75
2022-11-27T21:03:33.085Z,12.85
2022-11-27T21:06:03.157Z,11.88
2022-11-27T21:08:31.077Z,12.15
2022-11-27T21:10:58.951Z,12.13
2022-11-27T21:13:28.157Z,13.30
2022-11-27T21:15:57.247Z,12.50
2022-11-27T21:18:25.264Z,12.63
2022-11-27T21:20:52.770Z,13.50
2022-11-27T21:23:21.116Z,13.02
2022-11-27T21:25:48.968Z,14.23
2022-11-27T21:28:16.090Z,17.27
2022-11-27T21:30:43.158Z,13.95
2022-11-27T21:33:12.864Z,13.40
2022-11-27T21:35:40.616Z,13.90
2022-11-27T21:38:09.193Z,13.93
2022-11-27T21:40:37.910Z,13.10
2022-11-27T21:43:05.107Z,13.23
2022-11-27T21:45:32.820Z,12.63
2022-11-27T21:48:00.251Z,13.23
2022-11-27T21:50:27.424Z,12.07
2022-11-27T21:52:55.437Z,11.35
2022-11-27T21:55:22.955Z,12.18
2022-11-27T21:57:51.823Z,12.38
2022-11-27T22:00:20.668Z,12.15
2022-11-27T22:02:48.504Z,12.20
2022-11-27T22:05:16.339Z,12.00
2022-11-27T22:07:43.758Z,12.88
2022-11-27T22:10:11.676Z,11.93
2022-11-27T22:12:38.969Z,11.98
2022-11-27T22:15:06.404Z,10.75
2022-11-27T22:17:34.837Z,11.98
2022-11-27T22:20:03.573Z,11.75
2022-11-27T22:22:30.813Z,11.20
2022-11-27T22:24:58.395Z,11.38
2022-11-27T22:27:25.353Z,11.57
2022-11-27T22:29:52.724Z,11.48
2022-11-27T22:32:19.594Z,11.77
2022-11-27T22:34:46.603Z,11.68
2022-11-27T22:37:16.899Z,12.30
2022-11-27T22:39:45.397Z,11.77
2022-11-27T22:42:12.486Z,11.27
2022-11-27T22:44:39.619Z,11.88
2022-11-27T22:47:07.471Z,10.90
2022-11-27T22:49:34.517Z,10.77
2022-11-27T22:52:01.793Z,11.45
2022-11-27T22:54:28.955Z,11.30
2022-11-27T22:56:55.886Z,11.25
2022-11-27T22:59:38.371Z,10.43
2022-11-27T23:02:06.616Z,11.23
2022-11-27T23:04:35.075Z,11.10
2022-11-27T23:07:02.125Z,11.15
2022-11-27T23:09:29.220Z,12.15
2022-11-27T23:11:57.083Z,10.77
2022-11-27T23:14:24.722Z,11.50
2022-11-27T23:16:51.751Z,12.13
2022-11-27T23:19:18.823Z,11.07
2022-11-27T23:21:45.752Z,11.82
2022-11-27T23:24:15.346Z,11.93
2022-11-27T23:26:43.235Z,10.75
2022-11-27T23:29:10.499Z,11.98
2022-11-27T23:31:38.246Z,11.07
2022-11-27T23:34:07.955Z,11.80
2022-11-27T23:36:35.975Z,10.60
2022-11-27T23:39:05.308Z,10.70
2022-11-27T23:41:32.655Z,10.82
2022-11-27T23:43:59.916Z,9.90
2022-11-27T23:46:29.334Z,10.00
2022-11-27T23:48:57.860Z,10.65
2022-11-27T23:51:27.083Z,11.02
2022-11-27T23:53:54.161Z,10.02
2022-11-27T23:56:26.562Z,9.90
2022-11-27T23:58:55.047Z,10.32
